Terminal Aerodrome Forecast
Issued by NWS Lake Charles, LA

Home | Current Version | Previous Version | Text Only | Print | Product List | Glossary On
Versions: 1 2 3 4 5 6 7 8 9 10 11 12 13 14 15 16 17 18
287
FTUS44 KLCH 211820 AAA
TAFLCH
TAF AMD
KLCH 211820Z 2118/2218 16015G21KT P6SM OVC015
     FM212000 16014G21KT P6SM SCT015 OVC025
     FM220100 15012KT 3SM BR VCSH BKN025 OVC050
      TEMPO 2201/2205 1SM BR OVC004
     FM220600 17010KT 4SM BR VCTS OVC015CB
      TEMPO 2206/2210 -TSRA OVC004CB
     FM221000 23005KT 4SM BR VCSH OVC007
     FM221500 30008KT P6SM BKN015=

USA.gov is the U.S. government's official web portal to all federal, state and local government web resources and services.